Terminal Aerodrome Forecast
Issued by NWS Northern Indiana

Home | Current Version | Previous Version | Graphics & Text | Print | Product List | Glossary On
Versions: 1 2 3 4 5 6 7 8 9 10 11 12 13 14 15 16 17 18
000
FTUS43 KIWX 180520
TAFFWA
TAF
KFWA 180520Z 1806/1906 20012KT P6SM -SHRA OVC035 WS020/21050KT
     FM181000 21009KT 4SM SHRA BR OVC008
     FM181500 21013G20KT 3SM SHRA BR OVC008
      TEMPO 1815/1819 2SM TSRA BR BKN006CB
     FM182300 31020G30KT P6SM OVC025=

USA.gov is the U.S. government's official web portal to all federal, state and local government web resources and services.